Main page
METAR-TAF:

METAR-TAF

Airports :

Craiova International Airport

Craiova, Romania

latitude: 44-14N, longitude: 023-52E, elevation: 192 m

Current weather observation

The report was made 21 minutes ago, at 19:30 UTC
Wind 6 kt from the East
Temperature 11°C
Humidity 87%
Pressure 1015 hPa
Visibility 10 km or more
no clouds below 1500 m and no cumulonimbus

METAR: LRCV 281930Z 08006KT CAVOK 11/09 Q1015

Time: 22:51 (19:51 UTC)

Forecast

The report was made 2 hours and 51 minutes ago, at 17:00 UTC
Forecast valid from 28 at 18 UTC to 29 at 03 UTC
Wind 8 kt from the West
Visibility 10 km or more
Scattered clouds at a height of 4500 ft, Cumulonimbus.
Becoming
from 28 at 19 UTC to 28 at 21 UTC
Scattered clouds at a height of 4000 ft

TAF: LRCV 281700Z 2818/2903 27008KT 9999 SCT045CB BECMG 2819/2821 SCT040

Weather observations and forecasts of more than 4000 airports (METAR and TAF reports).

The available stations are represented by yellow and red dots on the map.

Hover mouse over dot to see the name of the station.

Then click to see weather observations and forecasts.

To change the map : click on the green buttons with a black cross to zoom in, on the green button with a dash to zoom out, or on the green arrows for adjacent maps.


METAR-TAF: